createdAt,value
2022-08-29T00:03:10.098Z,98180.91
2022-08-29T00:08:13.265Z,98180.59
2022-08-29T00:13:16.194Z,98168.88
2022-08-29T00:18:20.588Z,98173.47
2022-08-29T00:23:23.121Z,98181.16
2022-08-29T00:28:25.744Z,98191.50
2022-08-29T00:33:29.073Z,98182.44
2022-08-29T00:38:31.716Z,98182.44
2022-08-29T00:43:36.441Z,98174.59
2022-08-29T00:48:40.799Z,98177.38
2022-08-29T00:53:45.860Z,98182.19
2022-08-29T00:58:57.735Z,98187.50
2022-08-29T01:04:00.749Z,98194.81
2022-08-29T01:09:05.480Z,98201.34
2022-08-29T01:14:09.123Z,98195.28
2022-08-29T01:19:34.614Z,98192.72
2022-08-29T01:24:40.295Z,98198.19
2022-08-29T01:29:43.423Z,98197.97
2022-08-29T01:34:46.063Z,98197.06
2022-08-29T01:39:48.652Z,98198.22
2022-08-29T01:44:53.559Z,98198.41
2022-08-29T01:49:57.125Z,98197.72
2022-08-29T01:54:59.955Z,98201.19
2022-08-29T02:00:04.325Z,98201.22
2022-08-29T02:05:07.726Z,98201.31
2022-08-29T02:10:10.694Z,98197.53
2022-08-29T02:15:13.682Z,98209.50
2022-08-29T02:20:16.893Z,98199.78
2022-08-29T02:25:38.132Z,98201.19
2022-08-29T02:30:46.262Z,98198.06
2022-08-29T02:35:53.474Z,98195.66
2022-08-29T02:40:56.220Z,98195.19
2022-08-29T02:45:59.639Z,98191.44
2022-08-29T02:51:02.091Z,98187.91
2022-08-29T02:56:04.580Z,98188.44
2022-08-29T03:01:10.657Z,98190.22
2022-08-29T03:06:13.731Z,98192.00
2022-08-29T03:11:17.288Z,98192.19
2022-08-29T03:16:19.834Z,98195.19
2022-08-29T03:21:25.309Z,98194.66
2022-08-29T03:26:28.036Z,98190.81
2022-08-29T03:31:31.217Z,98185.84
2022-08-29T03:36:34.282Z,98183.53
2022-08-29T03:41:36.870Z,98190.41
2022-08-29T03:46:39.752Z,98199.28
2022-08-29T03:51:42.502Z,98195.00
2022-08-29T03:56:46.193Z,98209.72
2022-08-29T04:01:49.272Z,98202.69
2022-08-29T04:06:52.135Z,98199.69
2022-08-29T04:11:54.767Z,98203.28
2022-08-29T04:16:58.188Z,98205.16
2022-08-29T04:22:00.935Z,98204.88
2022-08-29T04:27:03.543Z,98210.78
2022-08-29T04:32:06.136Z,98220.94
2022-08-29T04:37:08.725Z,98214.94
2022-08-29T04:42:15.113Z,98216.97
2022-08-29T04:47:22.284Z,98218.03
2022-08-29T04:52:26.337Z,98213.69
2022-08-29T04:57:28.880Z,98222.56
2022-08-29T05:02:31.496Z,98222.50
2022-08-29T05:07:34.123Z,98232.84
2022-08-29T05:12:40.962Z,98234.38
2022-08-29T05:17:44.231Z,98246.34
2022-08-29T05:22:47.189Z,98253.47
2022-08-29T05:27:49.620Z,98250.47
2022-08-29T05:32:52.379Z,98248.22
2022-08-29T05:37:55.133Z,98247.91
2022-08-29T05:42:57.714Z,98244.75
2022-08-29T05:48:05.016Z,98237.66
2022-08-29T05:53:08.902Z,98241.00
2022-08-29T05:58:12.663Z,98251.00
2022-08-29T06:03:15.658Z,98254.38
2022-08-29T06:08:19.331Z,98259.72
2022-08-29T06:13:21.824Z,98264.34
2022-08-29T06:18:34.461Z,98265.44
2022-08-29T06:23:40.543Z,98281.34
2022-08-29T06:28:46.066Z,98273.50
2022-08-29T06:33:52.197Z,98272.97
2022-08-29T06:39:02.946Z,98279.09
2022-08-29T06:44:06.396Z,98285.38
2022-08-29T06:49:11.434Z,98286.34
2022-08-29T06:54:14.856Z,98287.06
2022-08-29T06:59:19.028Z,98282.88
2022-08-29T07:04:21.620Z,98289.94
2022-08-29T07:09:26.204Z,98289.19
2022-08-29T07:14:28.909Z,98286.91
2022-08-29T07:19:31.424Z,98292.22
2022-08-29T07:24:34.383Z,98298.84
2022-08-29T07:29:36.833Z,98297.72
2022-08-29T07:34:39.388Z,98302.75
2022-08-29T07:39:41.864Z,98297.88
2022-08-29T07:44:44.549Z,98309.84
2022-08-29T07:49:47.459Z,98303.94
2022-08-29T07:54:49.948Z,98307.38
2022-08-29T07:59:52.574Z,98294.78
2022-08-29T08:04:55.073Z,98308.34
2022-08-29T08:09:57.662Z,98303.81
2022-08-29T08:15:00.956Z,98308.69
2022-08-29T08:20:07.318Z,98312.94
2022-08-29T08:25:10.098Z,98308.50
2022-08-29T08:30:13.480Z,98310.50
2022-08-29T08:35:16.429Z,98310.00
2022-08-29T08:40:26.712Z,98312.94
2022-08-29T08:45:38.287Z,98312.22
2022-08-29T08:50:43.639Z,98312.84
2022-08-29T08:55:49.824Z,98316.88
2022-08-29T09:00:58.610Z,98310.78
2022-08-29T09:06:06.156Z,98307.19
2022-08-29T09:11:38.569Z,98308.63
2022-08-29T09:16:46.427Z,98311.56
2022-08-29T09:21:55.445Z,98317.13
2022-08-29T09:26:58.068Z,98310.44
2022-08-29T09:32:16.578Z,98311.84
2022-08-29T09:37:28.944Z,98308.31
2022-08-29T09:42:36.729Z,98304.09
2022-08-29T09:47:39.937Z,98312.28
2022-08-29T09:52:56.442Z,98311.88
2022-08-29T09:58:02.010Z,98306.63
2022-08-29T10:03:09.070Z,98306.84
2022-08-29T10:08:31.284Z,98298.00
2022-08-29T10:13:50.280Z,98297.81
2022-08-29T10:19:01.427Z,98301.63
2022-08-29T10:24:24.742Z,98307.38
2022-08-29T10:29:31.823Z,98297.91
2022-08-29T10:35:06.044Z,98306.47
2022-08-29T10:40:43.273Z,98303.88
2022-08-29T10:46:23.874Z,98299.03
2022-08-29T10:51:40.366Z,98297.81
2022-08-29T10:56:46.528Z,98289.81
2022-08-29T11:02:03.172Z,98291.56
2022-08-29T11:07:16.420Z,98279.72
2022-08-29T11:12:25.128Z,98280.31
2022-08-29T11:17:40.867Z,98272.81
2022-08-29T11:22:53.222Z,98267.56
2022-08-29T11:28:04.141Z,98271.50
2022-08-29T11:33:37.711Z,98268.22
2022-08-29T11:38:55.471Z,98250.31
2022-08-29T11:44:34.664Z,98257.50
2022-08-29T11:49:48.654Z,98249.00
2022-08-29T11:55:28.530Z,98251.06
2022-08-29T12:00:45.035Z,98240.56
2022-08-29T12:05:58.008Z,98240.28
2022-08-29T12:11:01.726Z,98236.38
2022-08-29T12:16:11.628Z,98232.28
2022-08-29T12:21:39.301Z,98229.69
2022-08-29T12:26:44.995Z,98226.41
2022-08-29T12:32:22.245Z,98223.59
2022-08-29T12:37:40.978Z,98215.13
2022-08-29T12:43:06.681Z,98209.16
2022-08-29T12:48:15.697Z,98208.84
2022-08-29T12:53:25.479Z,98195.03
2022-08-29T12:58:41.812Z,98200.75
2022-08-29T13:03:59.424Z,98193.03
2022-08-29T13:09:06.218Z,98189.63
2022-08-29T13:14:12.044Z,98181.41
2022-08-29T13:19:25.023Z,98174.56
2022-08-29T13:24:27.683Z,98174.56
2022-08-29T13:29:39.900Z,98165.34
2022-08-29T13:35:21.144Z,98172.63
2022-08-29T13:40:36.728Z,98169.38
2022-08-29T13:45:39.877Z,98162.28
2022-08-29T13:50:42.513Z,98159.72
2022-08-29T13:55:45.282Z,98164.03
2022-08-29T14:00:47.832Z,98156.97
2022-08-29T14:05:56.437Z,98162.44
2022-08-29T14:10:59.315Z,98158.00
2022-08-29T14:16:02.330Z,98155.50
2022-08-29T14:21:05.060Z,98144.97
2022-08-29T14:26:08.740Z,98144.44
2022-08-29T14:31:11.582Z,98143.28
2022-08-29T14:36:14.149Z,98127.38
2022-08-29T14:41:17.006Z,98131.66
2022-08-29T14:46:51.728Z,98132.19
2022-08-29T14:51:54.564Z,98119.59
2022-08-29T14:57:07.209Z,98118.72
2022-08-29T15:02:10.749Z,98112.63
2022-08-29T15:07:14.125Z,98113.06
2022-08-29T15:12:21.669Z,98121.38
2022-08-29T15:17:25.405Z,98109.84
2022-08-29T15:22:28.323Z,98113.50
2022-08-29T15:27:31.445Z,98103.53
2022-08-29T15:32:34.690Z,98082.88
2022-08-29T15:37:37.787Z,98083.13
2022-08-29T15:42:40.372Z,98066.84
2022-08-29T15:47:46.446Z,98076.38
2022-08-29T15:52:49.024Z,98066.09
2022-08-29T15:57:52.825Z,98070.59
2022-08-29T16:02:55.785Z,98069.69
2022-08-29T16:07:58.245Z,98068.06
2022-08-29T16:13:00.982Z,98060.09
2022-08-29T16:18:04.579Z,98056.81
2022-08-29T16:23:07.545Z,98054.84
2022-08-29T16:28:10.066Z,98053.84
2022-08-29T16:33:12.612Z,98053.63
2022-08-29T16:38:15.382Z,98047.69
2022-08-29T16:43:18.460Z,98052.88
2022-08-29T16:48:20.978Z,98055.66
2022-08-29T16:53:23.631Z,98051.56
2022-08-29T16:58:44.668Z,98048.19
2022-08-29T17:03:47.332Z,98051.63
2022-08-29T17:08:49.771Z,98052.94
2022-08-29T17:13:55.380Z,98047.03
2022-08-29T17:18:57.921Z,98051.66
2022-08-29T17:24:02.319Z,98052.94
2022-08-29T17:29:06.644Z,98059.63
2022-08-29T17:34:10.412Z,98057.22
2022-08-29T17:39:13.059Z,98060.34
2022-08-29T17:44:15.539Z,98057.66
2022-08-29T17:49:18.342Z,98062.19
2022-08-29T17:54:23.003Z,98066.25
2022-08-29T17:59:27.880Z,98072.47
2022-08-29T18:04:30.387Z,98073.03
2022-08-29T18:09:32.983Z,98071.41
2022-08-29T18:14:35.696Z,98083.22
2022-08-29T18:19:38.692Z,98084.59
2022-08-29T18:24:41.098Z,98084.38
2022-08-29T18:29:45.350Z,98092.41
2022-08-29T18:34:48.228Z,98097.03
2022-08-29T18:39:50.719Z,98108.28
2022-08-29T18:44:54.631Z,98109.09
2022-08-29T18:50:15.707Z,98116.47
2022-08-29T18:55:18.311Z,98117.13
2022-08-29T19:00:22.504Z,98135.34
2022-08-29T19:05:26.855Z,98133.81
2022-08-29T19:10:31.870Z,98139.66
2022-08-29T19:15:41.235Z,98140.78
2022-08-29T19:21:02.585Z,98144.25
2022-08-29T19:26:09.983Z,98142.66
2022-08-29T19:31:14.491Z,98142.03
2022-08-29T19:36:20.828Z,98137.06
2022-08-29T19:41:24.029Z,98143.59
2022-08-29T19:46:27.731Z,98148.50
2022-08-29T19:51:32.812Z,98146.06
2022-08-29T19:56:36.207Z,98156.28
2022-08-29T20:01:40.133Z,98150.09
2022-08-29T20:06:42.662Z,98165.84
2022-08-29T20:11:46.507Z,98166.16
2022-08-29T20:16:49.374Z,98181.66
2022-08-29T20:21:53.054Z,98168.81
2022-08-29T20:26:55.549Z,98175.81
2022-08-29T20:32:00.038Z,98173.38
2022-08-29T20:37:14.139Z,98180.84
2022-08-29T20:42:20.384Z,98176.16
2022-08-29T20:47:24.317Z,98181.72
2022-08-29T20:52:26.888Z,98180.34
2022-08-29T20:57:29.827Z,98186.41
2022-08-29T21:02:51.244Z,98192.63
2022-08-29T21:07:53.759Z,98190.69
2022-08-29T21:12:56.203Z,98190.00
2022-08-29T21:17:59.176Z,98198.31
2022-08-29T21:23:04.106Z,98204.88
2022-08-29T21:28:07.247Z,98210.56
2022-08-29T21:33:10.827Z,98211.13
2022-08-29T21:38:13.376Z,98208.28
2022-08-29T21:43:16.010Z,98212.34
2022-08-29T21:48:18.564Z,98206.19
2022-08-29T21:53:21.194Z,98211.25
2022-08-29T21:58:23.636Z,98212.97
2022-08-29T22:03:26.282Z,98209.38
2022-08-29T22:08:28.934Z,98203.81
2022-08-29T22:13:31.450Z,98197.78
2022-08-29T22:18:34.053Z,98198.25
2022-08-29T22:23:36.601Z,98203.88
2022-08-29T22:28:39.199Z,98202.00
2022-08-29T22:33:42.139Z,98199.09
2022-08-29T22:38:46.764Z,98202.59
2022-08-29T22:44:11.367Z,98205.88
2022-08-29T22:49:16.250Z,98198.78
2022-08-29T22:54:37.582Z,98205.97
2022-08-29T22:59:41.574Z,98202.06
2022-08-29T23:04:44.279Z,98209.28
2022-08-29T23:09:47.260Z,98206.81
2022-08-29T23:14:49.935Z,98213.81
2022-08-29T23:19:52.370Z,98200.41
2022-08-29T23:24:58.350Z,98195.44
2022-08-29T23:30:02.103Z,98200.53
2022-08-29T23:35:07.596Z,98203.53
2022-08-29T23:40:10.439Z,98200.38
2022-08-29T23:45:13.032Z,98206.06
2022-08-29T23:50:16.448Z,98201.28
2022-08-29T23:55:18.968Z,98204.16
